| time (UTC) | temp F | wind direction | speed knots | gust knots | rain 1hr in | rain 24hr in | rain mn in | humidity % | barometer mb |
| 20260504044605 | 54 | 335 | 0.0 | 0.0 | 0.00 | 0.00 | 0.00 | 84 | 1018.6 |
| 20260504043059 | 55 | 335 | 0.0 | 0.0 | 0.00 | 0.00 | 0.00 | 85 | 1018.8 |
| 20260504041558 | 55 | 335 | 0.0 | 0.0 | 0.00 | 0.00 | 0.00 | 84 | 1018.7 |
| 20260504040107 | 56 | 335 | 0.0 | 0.0 | 0.00 | 0.00 | 0.00 | 84 | 1018.6 |
| 20260504034627 | 57 | 335 | 0.0 | 0.0 | 0.00 | 0.00 | 0.00 | 84 | 1018.6 |
| 20260504033057 | 56 | 335 | 0.0 | 0.0 | 0.00 | 0.00 | 0.00 | 82 | 1018.7 |
| 20260504031556 | 57 | 335 | 0.0 | 0.0 | 0.00 | 0.00 | 0.00 | 81 | 1018.7 |
| 20260504030120 | 57 | 335 | 0.0 | 0.0 | 0.00 | 0.00 | 0.00 | 82 | 1018.9 |
| 20260504024559 | 57 | 335 | 0.0 | 0.0 | 0.00 | 0.00 | 0.00 | 82 | 1018.7 |
| 20260504023054 | 58 | 335 | 0.0 | 0.0 | 0.00 | 0.00 | 0.00 | 81 | 1018.6 |
| 20260504021554 | 59 | 335 | 0.0 | 0.0 | 0.00 | 0.00 | 0.00 | 80 | 1018.4 |
| 20260504020100 | 60 | 335 | 0.0 | 0.0 | 0.00 | 0.00 | 0.00 | 77 | 1018.2 |
| 20260504014555 | 61 | 335 | 0.0 | 0.0 | 0.00 | 0.00 | 0.00 | 73 | 1018.1 |
| 20260504013054 | 62 | 335 | 0.0 | 0.0 | 0.00 | 0.00 | 0.00 | 69 | 1017.9 |
| 20260504011550 | 63 | 335 | 0.0 | 0.0 | 0.00 | 0.00 | 0.00 | 63 | 1017.8 |
| 20260504010050 | 65 | 335 | 0.0 | 0.0 | 0.00 | 0.00 | 0.00 | 60 | 1017.7 |
| 20260504004549 | 68 | 335 | 0.0 | 0.0 | 0.00 | 0.00 | 0.00 | 53 | 1017.5 |
| 20260504003047 | 70 | 335 | 0.0 | 0.0 | 0.00 | 0.00 | 0.00 | 48 | 1017.2 |
| 20260504001600 | 73 | 335 | 0.0 | 0.9 | 0.00 | 0.00 | 0.00 | 43 | 1017.3 |
| 20260504000050 | 75 | 335 | 0.0 | 0.9 | 0.00 | 0.00 | 0.00 | 40 | 1017.2 |
| 20260503234546 | 75 | 332 | 0.0 | 0.9 | 0.00 | 0.00 | 0.00 | 39 | 1017.2 |
| 20260503233044 | 76 | 335 | 0.0 | 1.7 | 0.00 | 0.00 | 0.00 | 37 | 1017.1 |
| 20260503231551 | 76 | 283 | 0.0 | 3.5 | 0.00 | 0.00 | 0.00 | 38 | 1017.2 |
| 20260503230045 | 76 | 326 | 0.0 | 3.5 | 0.00 | 0.00 | 0.00 | 38 | 1017.3 |
| 20260503224544 | 75 | 316 | 0.9 | 3.5 | 0.00 | 0.00 | 0.00 | 38 | 1017.3 |
| 20260503223043 | 76 | 347 | 0.0 | 1.7 | 0.00 | 0.00 | 0.00 | 39 | 1017.1 |
| 20260503221545 | 76 | 307 | 0.9 | 3.5 | 0.00 | 0.00 | 0.00 | 38 | 1017.2 |
| 20260503220041 | 76 | 42 | 0.0 | 2.6 | 0.00 | 0.00 | 0.00 | 35 | 1017.3 |
| 20260503214540 | 75 | 291 | 0.9 | 7.0 | 0.00 | 0.00 | 0.00 | 35 | 1017.3 |
| 20260503213043 | 76 | 51 | 3.5 | 8.7 | 0.00 | 0.00 | 0.00 | 32 | 1017.5 |
| 20260503211537 | 76 | 328 | 0.0 | 3.5 | 0.00 | 0.00 | 0.00 | 35 | 1017.8 |
| 20260503210034 | 76 | 347 | 0.0 | 7.8 | 0.00 | 0.00 | 0.00 | 34 | 1018.0 |
| 20260503204534 | 76 | 330 | 1.7 | 5.2 | 0.00 | 0.00 | 0.00 | 35 | 1018.2 |
| 20260503203032 | 75 | 6 | 0.0 | 7.8 | 0.00 | 0.00 | 0.00 | 36 | 1018.2 |
| 20260503201532 | 76 | 347 | 2.6 | 10.4 | 0.00 | 0.00 | 0.00 | 35 | 1018.3 |
| 20260503200032 | 76 | 13 | 0.0 | 6.1 | 0.00 | 0.00 | 0.00 | 35 | 1018.6 |
| 20260503194529 | 76 | 340 | 1.7 | 8.7 | 0.00 | 0.00 | 0.00 | 35 | 1018.9 |
| 20260503193027 | 75 | 99 | 2.6 | 6.1 | 0.00 | 0.00 | 0.00 | 32 | 1019.2 |
| 20260503191526 | 75 | 299 | 0.0 | 2.6 | 0.00 | 0.00 | 0.00 | 36 | 1019.4 |
| 20260503190041 | 75 | 335 | 3.5 | 18.2 | 0.00 | 0.00 | 0.00 | 34 | 1019.8 |
| 20260503184524 | 75 | 35 | 1.7 | 4.3 | 0.00 | 0.00 | 0.00 | 36 | 1019.9 |
| 20260503183023 | 74 | 334 | 2.6 | 12.2 | 0.00 | 0.00 | 0.00 | 32 | 1020.1 |
| 20260503181522 | 74 | 330 | 1.7 | 5.2 | 0.00 | 0.00 | 0.00 | 36 | 1020.1 |
| 20260503180034 | 74 | 324 | 0.9 | 5.2 | 0.00 | 0.00 | 0.00 | 38 | 1020.1 |
| 20260503174519 | 74 | 25 | 3.5 | 8.7 | 0.00 | 0.00 | 0.00 | 34 | 1020.3 |
| 20260503173017 | 74 | 3 | 2.6 | 6.1 | 0.00 | 0.00 | 0.00 | 35 | 1020.5 |
| 20260503171528 | 73 | 349 | 1.7 | 6.1 | 0.00 | 0.00 | 0.00 | 37 | 1020.6 |
| 20260503150110 | 69 | 326 | 0.0 | 2.6 | 0.00 | 0.00 | 0.00 | 57 | 1022.0 |
| 20260503100107 | 47 | 325 | 0.0 | 0.0 | 0.00 | 0.11 | 0.00 | 92 | 1019.5 |
| 20260503081550 | 47 | 325 | 0.0 | 0.0 | 0.00 | 0.35 | 0.00 | 91 | 1019.1 |
| 20260503071548 | 47 | 325 | 0.0 | 0.0 | 0.00 | 0.56 | 0.00 | 89 | 1018.9 |